AirNav   Pilot Hours Calculator
 
 297 users online  

2O3 Angwin Airport-Parrett Field
Angwin, California, USA

GOING TO ANGWIN?


FAA INFORMATION EFFECTIVE 23 MAY 2019

Location

FAA Identifier: 2O3
Lat/Long: 38-34-48.1000N / 122-26-07.7000W
38-34.801667N / 122-26.128333W
38.5800278 / -122.4354722
(estimated)
Elevation: 1875 ft. / 572 m (estimated)
Variation: 16E (1985)
From city: 1 mile E of ANGWIN, CA
Time zone: UTC -7 (UTC -8 during Standard Time)
Zip code: 94508

Airport Operations

Airport use: Open to the public
Activation date: 03/1961
Control tower: no
ARTCC: OAKLAND CENTER
FSS: OAKLAND FLIGHT SERVICE STATION
NOTAMs facility: OAK (NOTAM-D service available)
Attendance: SUN-FRI 0800-1700
Pattern altitude: 2725 ft. MSL
Wind indicator: lighted
Segmented circle: yes
Lights: ACTVT LIRL RY 16/34 AND TRVC RYS 16 & 34 - CTAF.

Airport Communications

CTAF/UNICOM: 123.0
WX ASOS at STS (18 nm W): 120.55 (707-573-8393)

Nearby radio navigation aids

VOR radial/distance  VOR name  Freq  Var
STSr060/18.1SANTA ROSA VOR/DME113.0016E
SGDr336/24.2SCAGGS ISLAND VORTAC112.1017E
ILAr195/35.1WILLIAMS VORTAC114.4018E
PYEr017/36.3POINT REYES VOR/DME113.7017E
CCRr313/37.0CONCORD VOR/DME117.0017E

Airport Services

Fuel available: 100LL
Parking: tiedowns
Airframe service: MAJOR
Powerplant service: MAJOR
Bottled oxygen: NONE
Bulk oxygen: HIGH/LOW

Runway Information

Runway 16/34

Dimensions: 3217 x 50 ft. / 981 x 15 m
Surface: asphalt, in fair condition
Runway edge lights: low intensity
Gradient: N
RUNWAY 16  RUNWAY 34
Latitude: 38-35.065500N38-34.537833N
Longitude: 122-26.162333W122-26.095500W
Elevation: 1875.0 ft.1841.0 ft.
Traffic pattern: leftright
Markings: basic, in good conditionbasic, in good condition
Visual slope indicator: tri-color VASI on left (5.00 degrees glide path)tri-color VASI on right (5.00 degrees glide path)
Runway end identifier lights: nono
Obstructions: 50 ft. tree, 1000 ft. from runway, 210 ft. left of centerline, 16:1 slope to clear
RWY 16 FENCE IN PRIMARY SFC 100 FT L AND 86 FT R OF CNTRLN PARALLEL TO RWY.
100 ft. trees, 2100 ft. from runway, 330 ft. right of centerline, 19:1 slope to clear

Airport Ownership and Management from official FAA records

Ownership: Privately-owned
Owner: PACIFIC UNION COLLEGE
1 ANGWIN AVENUE
ANGWIN, CA 94508
Phone 707-965-6219
Manager: GEOFFREY HILTON
1 ANGWIN AVENUE
ANGWIN, CA 94508
Phone 707-965-6219

Airport Operational Statistics

Aircraft based on the field: 44
Single engine airplanes: 38
Multi engine airplanes: 4
Ultralights: 2
    
Aircraft operations: avg 27/day *
80% local general aviation
20% transient general aviation
* for 12-month period ending 31 December 2017

Instrument Procedures

There are no published instrument procedures at 2O3.

Some nearby airports with instrument procedures:

KSTS - Charles M Schulz - Sonoma County Airport (18 nm W)
O69 - Petaluma Municipal Airport (21 nm S)
KAPC - Napa County Airport (23 nm S)
KVCB - Nut Tree Airport (25 nm SE)
KDVO - Gnoss Field Airport (27 nm S)
 
Loc | Ops | Rwys | IFR | FBO | Links
Com | Nav | Svcs | Stats | Notes

Sonoma Jet Center
 
Area around 2O3 (Angwin Airport-Parrett Field)
 
Road maps at: MapQuest Bing Google
 
Aerial photo
WARNING: Photo may not be current or correct
Aerial photo of 2O3 (Angwin Airport-Parrett Field)
Photo courtesy of Pilot Getaways magazine
www.pilotgetaways.com/

Do you have a better or more recent aerial photo of Angwin Airport-Parrett Field that you would like to share? If so, please send us your photo.

 
Sectional chart

 
Airport distance calculator
Flying to Angwin Airport-Parrett Field? Find the distance to fly.

From to 2O3

Sunrise and sunset
Times for 17-Jun-2019
 Local
(UTC-7)
 Zulu
(UTC)
Morning civil twilight05:1412:14
Sunrise05:4612:46
Sunset20:3503:35
Evening civil twilight21:0704:07

Current date and time
Zulu (UTC)  17-Jun-2019 08:18:06
Local (UTC-7)  17-Jun-2019 01:18:06
 
METAR
KSTS 
19nm W 
707-573-8393
170802Z AUTO 00000KT 6SM BR OVC003 11/11 A2982 RMK AO2 T01110106
KO69 
21nm S 
170755Z AUTO 01003KT 6SM BR 11/11 A2983 RMK A01
KAPC 
24nm S 
170754Z AUTO 20009KT 10SM OVC008 13/11 A2982 RMK AO2 SLP091 T01280111 402060117
KVCB 
26nm SE 
170753Z AUTO 24010KT 10SM CLR 16/12 A2974 RMK AO2 SLP070 T01610122 403280117 $
KDVO 
27nm S 
170755Z AUTO 35003KT 10SM CLR 11/10 A2983 RMK AO2
KEDU 
31nm E 
170755Z AUTO 15005KT 10SM CLR 15/12 A2974 RMK AO1
KSUU 
31nm SE 
170758Z AUTO 23019G26KT 10SM CLR 13/11 A2975 RMK AO2 PK WND 23031/18 SLP081 T01310106 402700113
TAF
KSTS 
19nm W 
170529Z 1706/1806 15006KT P6SM BKN005 FM170800 00000KT P6SM OVC003 FM171600 VRB03KT P6SM SCT006 FM171800 19008KT P6SM SKC FM180400 14004KT P6SM SKC
NOTAMs
Click for the latest NOTAMs
NOTAMs are issued by the DoD/FAA and will open in a separate window not controlled by AirNav.

 

 
 

FBO, Fuel Providers, and Aircraft Ground Support

  
 Business Name 
 
 Contact 
 
 Services / Description 
 
Fuel Prices
 
Comments
  
PUC (Pacific Union College) Flight Center 707-965-6219
no information available

If you are affiliated with PUC (Pacific Union College) Flight Center and would like to show here your services, contact info, web link, logo, and more, click here
100LL
FS $4.99 
 Updated 31-May-2019
 
   write
FS=Full service
Update Fuel Prices
 

Would you like to see your business listed on this page?

 If your business provides an interesting product or service to pilots, flight crews, aircraft, or users of the Angwin Airport-Parrett Field, you should consider listing it here.  To start the listing process, click on the button below
 
Add a business
 

Other Pages about Angwin Airport-Parrett Field

www.down-and-locked.com/...
 
Update a link
 
Copyright © AirNav, LLC. All rights reserved. Privacy Policy  Contact